createdAt,value
2022-10-11T00:01:34.442Z,12.26
2022-10-11T00:04:01.043Z,12.36
2022-10-11T00:06:27.439Z,12.26
2022-10-11T00:08:53.842Z,12.22
2022-10-11T00:11:20.374Z,12.17
2022-10-11T00:13:46.784Z,12.06
2022-10-11T00:16:15.307Z,12.09
2022-10-11T00:18:42.475Z,12.13
2022-10-11T00:21:12.024Z,11.95
2022-10-11T00:23:39.301Z,12.08
2022-10-11T00:26:08.604Z,12.09
2022-10-11T00:28:36.183Z,12.17
2022-10-11T00:31:07.177Z,12.14
2022-10-11T00:33:34.132Z,12.13
2022-10-11T00:36:00.613Z,12.10
2022-10-11T00:38:27.119Z,12.16
2022-10-11T00:40:53.608Z,12.17
2022-10-11T00:43:23.542Z,12.12
2022-10-11T00:45:58.927Z,12.04
2022-10-11T00:48:29.730Z,12.10
2022-10-11T00:50:59.855Z,12.05
2022-10-11T00:53:30.490Z,12.01
2022-10-11T00:56:07.063Z,12.01
2022-10-11T00:58:36.299Z,12.06
2022-10-11T01:01:03.567Z,12.02
2022-10-11T01:03:32.842Z,11.94
2022-10-11T01:05:59.412Z,12.00
2022-10-11T01:08:27.013Z,12.02
2022-10-11T01:10:53.608Z,12.02
2022-10-11T01:13:54.667Z,11.93
2022-10-11T01:16:26.254Z,11.81
2022-10-11T01:19:11.396Z,11.90
2022-10-11T01:21:43.840Z,11.93
2022-10-11T01:24:45.548Z,11.80
2022-10-11T01:27:42.046Z,11.81
2022-10-11T01:30:37.132Z,11.96
2022-10-11T01:33:18.536Z,11.88
2022-10-11T01:35:44.877Z,11.92
2022-10-11T01:38:31.615Z,11.85
2022-10-11T01:41:14.422Z,11.76
2022-10-11T01:43:42.498Z,11.79
2022-10-11T01:46:10.243Z,11.81
2022-10-11T01:48:54.811Z,11.94
2022-10-11T01:51:24.516Z,11.89
2022-10-11T01:54:15.997Z,11.89
2022-10-11T01:57:04.042Z,11.86
2022-10-11T01:59:53.873Z,11.73
2022-10-11T02:02:55.774Z,11.81
2022-10-11T02:05:40.671Z,11.80
2022-10-11T02:08:24.517Z,11.69
2022-10-11T02:11:15.912Z,11.63
2022-10-11T02:13:51.767Z,11.68
2022-10-11T02:16:22.231Z,11.64
2022-10-11T02:18:52.807Z,11.74
2022-10-11T02:21:21.989Z,11.65
2022-10-11T02:23:54.764Z,11.65
2022-10-11T02:26:23.620Z,11.71
2022-10-11T02:28:52.705Z,11.75
2022-10-11T02:31:20.521Z,11.79
2022-10-11T02:34:22.050Z,11.81
2022-10-11T02:37:11.982Z,11.73
2022-10-11T02:40:03.935Z,11.73
2022-10-11T02:42:37.086Z,11.67
2022-10-11T02:45:07.321Z,11.78
2022-10-11T02:47:34.123Z,11.66
2022-10-11T02:50:00.779Z,11.65
2022-10-11T02:52:27.647Z,11.66
2022-10-11T02:54:54.075Z,11.61
2022-10-11T02:57:20.588Z,11.62
2022-10-11T02:59:46.992Z,11.73
2022-10-11T03:02:13.440Z,11.64
2022-10-11T03:04:39.864Z,11.50
2022-10-11T03:07:06.285Z,11.56
2022-10-11T03:09:32.880Z,11.58
2022-10-11T03:11:59.295Z,11.50
2022-10-11T03:14:25.753Z,11.61
2022-10-11T03:16:52.159Z,11.59
2022-10-11T03:19:19.512Z,11.61
2022-10-11T03:21:46.292Z,11.52
2022-10-11T03:24:12.779Z,11.52
2022-10-11T03:26:39.160Z,11.47
2022-10-11T03:29:05.572Z,11.62
2022-10-11T03:31:31.972Z,11.63
2022-10-11T03:33:58.370Z,11.65
2022-10-11T03:36:25.040Z,11.56
2022-10-11T03:38:51.445Z,11.52
2022-10-11T03:41:17.863Z,11.51
2022-10-11T03:43:44.555Z,11.48
2022-10-11T03:46:10.996Z,11.49
2022-10-11T03:48:37.441Z,11.39
2022-10-11T03:51:03.961Z,11.36
2022-10-11T03:53:30.515Z,11.41
2022-10-11T03:55:56.947Z,11.46
2022-10-11T03:58:23.943Z,11.41
2022-10-11T04:00:51.767Z,11.50
2022-10-11T04:03:18.157Z,11.50
2022-10-11T04:05:44.551Z,11.33
2022-10-11T04:08:12.274Z,11.30
2022-10-11T04:10:39.996Z,11.25
2022-10-11T04:13:06.623Z,11.24
2022-10-11T04:15:33.265Z,11.21
2022-10-11T04:17:59.781Z,11.20
2022-10-11T04:20:26.199Z,11.39
2022-10-11T04:22:52.693Z,11.30
2022-10-11T04:25:19.158Z,11.15
2022-10-11T04:27:45.706Z,11.23
2022-10-11T04:30:12.655Z,11.26
2022-10-11T04:32:39.047Z,11.23
2022-10-11T04:35:06.087Z,11.30
2022-10-11T04:37:33.038Z,11.26
2022-10-11T04:39:59.543Z,11.23
2022-10-11T04:42:26.179Z,11.19
2022-10-11T04:44:52.568Z,11.12
2022-10-11T04:47:19.099Z,11.18
2022-10-11T04:49:45.603Z,11.13
2022-10-11T04:52:11.998Z,11.02
2022-10-11T04:54:38.397Z,11.19
2022-10-11T04:57:05.083Z,11.12
2022-10-11T04:59:31.526Z,11.05
2022-10-11T05:01:58.051Z,11.13
2022-10-11T05:04:24.569Z,11.13
2022-10-11T05:06:51.115Z,11.24
2022-10-11T05:09:17.509Z,11.21
2022-10-11T05:11:43.907Z,11.19
2022-10-11T05:14:10.469Z,11.15
2022-10-11T05:16:36.996Z,11.17
2022-10-11T05:19:03.444Z,11.23
2022-10-11T05:21:30.394Z,11.06
2022-10-11T05:23:57.474Z,11.07
2022-10-11T05:26:25.791Z,11.08
2022-10-11T05:28:52.820Z,11.21
2022-10-11T05:31:19.780Z,11.14
2022-10-11T05:33:46.267Z,11.13
2022-10-11T05:36:13.047Z,11.04
2022-10-11T05:38:39.924Z,11.11
2022-10-11T05:41:09.057Z,11.21
2022-10-11T05:43:35.582Z,11.19
2022-10-11T05:46:02.200Z,11.20
2022-10-11T05:48:28.884Z,11.27
2022-10-11T05:51:03.618Z,11.27
2022-10-11T05:53:30.299Z,11.24
2022-10-11T05:55:57.181Z,11.18
2022-10-11T05:59:50.071Z,11.33
2022-10-11T06:02:16.493Z,11.38
2022-10-11T06:04:42.865Z,11.31
2022-10-11T06:07:09.264Z,11.24
2022-10-11T06:09:35.786Z,11.37
2022-10-11T06:12:02.324Z,11.34
2022-10-11T06:14:29.183Z,11.42
2022-10-11T06:16:55.604Z,11.48
2022-10-11T06:19:22.084Z,11.55
2022-10-11T06:21:48.512Z,11.62
2022-10-11T06:24:15.226Z,11.59
2022-10-11T06:26:41.620Z,11.59
2022-10-11T06:29:08.261Z,11.62
2022-10-11T06:31:34.667Z,11.69
2022-10-11T06:34:01.203Z,11.61
2022-10-11T06:36:28.708Z,11.72
2022-10-11T06:38:55.482Z,11.78
2022-10-11T06:41:28.150Z,11.82
2022-10-11T06:43:55.152Z,11.86
2022-10-11T06:46:23.528Z,11.86
2022-10-11T06:48:50.548Z,11.85
2022-10-11T06:51:20.693Z,11.95
2022-10-11T06:53:56.708Z,11.98
2022-10-11T06:56:24.105Z,11.92
2022-10-11T06:58:53.332Z,12.03
2022-10-11T07:01:21.448Z,11.93
2022-10-11T07:03:48.345Z,12.01
2022-10-11T07:06:18.366Z,12.12
2022-10-11T07:08:44.948Z,12.15
2022-10-11T07:11:14.465Z,12.11
2022-10-11T07:13:41.920Z,12.12
2022-10-11T07:16:11.590Z,12.15
2022-10-11T07:18:38.917Z,12.11
2022-10-11T07:21:07.401Z,12.23
2022-10-11T07:23:34.442Z,12.26
2022-10-11T07:26:01.074Z,12.34
2022-10-11T07:28:28.895Z,12.20
2022-10-11T07:30:55.636Z,12.22
2022-10-11T07:33:22.116Z,12.26
2022-10-11T07:35:49.672Z,12.34
2022-10-11T07:38:16.958Z,12.41
2022-10-11T07:40:45.606Z,12.54
2022-10-11T07:43:13.754Z,12.56
2022-10-11T07:45:41.331Z,12.60
2022-10-11T07:48:08.317Z,12.66
2022-10-11T07:50:34.939Z,12.73
2022-10-11T07:53:01.435Z,12.77
2022-10-11T07:55:29.930Z,12.83
2022-10-11T07:57:57.252Z,12.82
2022-10-11T08:00:24.240Z,12.87
2022-10-11T08:02:50.709Z,12.95
2022-10-11T08:05:17.396Z,12.92
2022-10-11T08:07:43.868Z,13.02
2022-10-11T08:10:10.538Z,13.08
2022-10-11T08:12:36.984Z,13.07
2022-10-11T08:15:03.660Z,13.10
2022-10-11T08:17:30.102Z,13.10
2022-10-11T08:19:58.116Z,13.18
2022-10-11T08:22:24.583Z,13.29
2022-10-11T08:24:51.089Z,13.20
2022-10-11T08:27:17.501Z,13.20
2022-10-11T08:29:43.874Z,13.31
2022-10-11T08:32:12.096Z,13.37
2022-10-11T08:34:38.481Z,13.37
2022-10-11T08:37:05.198Z,13.38
2022-10-11T08:39:31.704Z,13.47
2022-10-11T08:42:06.663Z,13.50
2022-10-11T08:45:12.964Z,13.60
2022-10-11T08:47:38.693Z,13.70
2022-10-11T08:50:06.962Z,13.70
2022-10-11T08:52:48.706Z,13.77
2022-10-11T08:55:50.893Z,13.84
2022-10-11T08:58:22.112Z,13.86
2022-10-11T09:00:52.705Z,13.87
2022-10-11T09:03:28.283Z,13.91
2022-10-11T09:06:04.246Z,13.97
2022-10-11T09:09:12.394Z,14.03
2022-10-11T09:11:51.712Z,14.07
2022-10-11T09:14:37.001Z,14.15
2022-10-11T09:17:15.346Z,14.17
2022-10-11T09:20:04.542Z,14.24
2022-10-11T09:22:52.260Z,14.16
2022-10-11T09:25:33.538Z,14.19
2022-10-11T09:28:17.632Z,14.24
2022-10-11T09:30:51.016Z,14.31
2022-10-11T09:33:39.942Z,14.36
2022-10-11T09:36:31.156Z,14.35
2022-10-11T09:39:28.737Z,14.31
2022-10-11T09:42:06.953Z,14.36
2022-10-11T09:44:48.656Z,14.41
2022-10-11T09:47:23.998Z,14.47
2022-10-11T09:50:01.070Z,14.52
2022-10-11T09:52:27.528Z,14.58
2022-10-11T09:55:00.478Z,14.63
2022-10-11T09:57:37.391Z,14.68
2022-10-11T10:00:23.644Z,14.74
2022-10-11T10:02:52.444Z,14.77
2022-10-11T10:05:26.895Z,14.81
2022-10-11T10:08:08.859Z,14.86
2022-10-11T10:10:45.195Z,14.90
2022-10-11T10:13:27.287Z,14.95
2022-10-11T10:15:57.822Z,15.02
2022-10-11T10:18:32.690Z,15.11
2022-10-11T10:21:00.731Z,15.19
2022-10-11T10:23:35.433Z,15.20
2022-10-11T10:26:10.902Z,15.21
2022-10-11T10:28:37.405Z,15.21
2022-10-11T10:31:03.827Z,15.22
2022-10-11T10:33:34.150Z,15.22
2022-10-11T10:36:09.219Z,15.29
2022-10-11T10:38:42.893Z,15.30
2022-10-11T10:41:12.815Z,15.34
2022-10-11T10:43:41.789Z,15.36
2022-10-11T10:46:50.701Z,15.41
2022-10-11T10:49:52.700Z,15.44
2022-10-11T10:52:30.509Z,15.52
2022-10-11T10:55:25.981Z,15.57
2022-10-11T10:58:23.862Z,15.62
2022-10-11T11:00:56.014Z,15.68
2022-10-11T11:03:46.710Z,15.72
2022-10-11T11:06:41.083Z,15.76
2022-10-11T11:09:29.618Z,15.79
2022-10-11T11:12:27.236Z,15.87
2022-10-11T11:15:02.895Z,15.88
2022-10-11T11:17:44.863Z,15.90
2022-10-11T11:20:20.272Z,15.94
2022-10-11T11:22:58.874Z,15.98
2022-10-11T11:26:07.805Z,16.05
2022-10-11T11:28:44.048Z,16.11
2022-10-11T11:31:36.269Z,16.10
2022-10-11T11:34:15.246Z,16.21
2022-10-11T11:36:49.667Z,16.21
2022-10-11T11:39:21.043Z,16.28
2022-10-11T11:41:57.697Z,16.30
2022-10-11T11:44:35.830Z,16.40
2022-10-11T11:47:31.307Z,16.44
2022-10-11T11:50:15.187Z,16.43
2022-10-11T11:52:45.747Z,16.41
2022-10-11T11:55:28.363Z,16.45
2022-10-11T11:58:39.998Z,16.49
2022-10-11T12:01:17.407Z,16.50
2022-10-11T12:03:51.352Z,16.53
2022-10-11T12:06:25.975Z,16.63
2022-10-11T12:09:18.407Z,16.63
2022-10-11T12:11:54.326Z,16.71
2022-10-11T12:14:38.223Z,16.76
2022-10-11T12:17:11.500Z,16.77
2022-10-11T12:19:41.763Z,16.77
2022-10-11T12:22:26.511Z,16.80
2022-10-11T12:25:18.699Z,16.79
2022-10-11T12:27:48.374Z,16.83
2022-10-11T12:30:42.636Z,16.83
2022-10-11T12:33:30.874Z,16.79
2022-10-11T12:36:04.080Z,16.80
2022-10-11T12:38:37.786Z,16.82
2022-10-11T12:41:10.424Z,16.80
2022-10-11T12:44:09.722Z,16.80
2022-10-11T12:46:57.544Z,16.79
2022-10-11T12:49:42.804Z,16.79
2022-10-11T12:52:18.256Z,16.79
2022-10-11T12:55:10.217Z,16.78
2022-10-11T12:57:55.914Z,16.75
2022-10-11T13:00:28.867Z,16.87
2022-10-11T13:03:28.349Z,16.98
2022-10-11T13:06:01.480Z,16.93
2022-10-11T13:08:32.539Z,16.94
2022-10-11T13:11:03.311Z,17.06
2022-10-11T13:13:43.813Z,16.95
2022-10-11T13:16:16.925Z,16.92
2022-10-11T13:18:47.492Z,16.98
2022-10-11T13:21:28.991Z,16.96
2022-10-11T13:23:59.006Z,16.95
2022-10-11T13:26:27.619Z,16.99
2022-10-11T13:28:54.198Z,16.93
2022-10-11T13:31:21.796Z,16.93
2022-10-11T13:33:48.439Z,16.91
2022-10-11T13:36:17.749Z,16.93
2022-10-11T13:38:55.597Z,17.05
2022-10-11T13:41:24.637Z,17.02
2022-10-11T13:43:51.921Z,16.95
2022-10-11T13:46:24.065Z,16.94
2022-10-11T13:49:07.113Z,16.92
2022-10-11T13:51:36.970Z,16.92
2022-10-11T13:54:13.298Z,16.96
2022-10-11T13:56:51.282Z,16.93
2022-10-11T13:59:20.737Z,16.93
2022-10-11T14:01:48.047Z,16.97
2022-10-11T14:04:17.104Z,17.01
2022-10-11T14:06:56.294Z,17.03
2022-10-11T14:09:38.386Z,16.98
2022-10-11T14:12:28.542Z,16.99
2022-10-11T14:14:54.986Z,17.04
2022-10-11T14:17:34.858Z,17.01
2022-10-11T14:20:24.223Z,17.00
2022-10-11T14:22:54.511Z,17.00
2022-10-11T14:25:22.017Z,16.99
2022-10-11T14:27:49.369Z,16.98
2022-10-11T14:30:27.269Z,16.95
2022-10-11T14:32:56.622Z,16.94
2022-10-11T14:35:29.289Z,16.93
2022-10-11T14:37:55.672Z,16.90
2022-10-11T14:40:27.798Z,16.88
2022-10-11T14:42:55.061Z,16.88
2022-10-11T14:45:21.557Z,16.89
2022-10-11T14:47:48.274Z,16.89
2022-10-11T14:50:28.699Z,16.86
2022-10-11T14:52:56.246Z,16.79
2022-10-11T14:55:23.381Z,16.96
2022-10-11T14:57:50.402Z,16.93
2022-10-11T15:00:22.679Z,16.91
2022-10-11T15:02:50.732Z,16.84
2022-10-11T15:05:17.107Z,16.80
2022-10-11T15:07:43.543Z,16.73
2022-10-11T15:10:37.443Z,16.72
2022-10-11T15:13:06.878Z,16.69
2022-10-11T15:15:36.583Z,16.63
2022-10-11T15:18:06.371Z,16.61
2022-10-11T15:20:38.924Z,16.59
2022-10-11T15:23:07.808Z,16.55
2022-10-11T15:25:34.620Z,16.52
2022-10-11T15:28:01.532Z,16.49
2022-10-11T15:30:38.446Z,16.45
2022-10-11T15:33:06.700Z,16.41
2022-10-11T15:35:33.115Z,16.40
2022-10-11T15:38:00.197Z,16.38
2022-10-11T15:40:34.681Z,16.34
2022-10-11T15:43:01.786Z,16.27
2022-10-11T15:45:29.024Z,16.23
2022-10-11T15:47:55.800Z,16.21
2022-10-11T15:50:35.136Z,16.24
2022-10-11T15:53:23.204Z,16.21
2022-10-11T15:55:54.513Z,16.12
2022-10-11T15:58:25.997Z,16.07
2022-10-11T16:00:56.294Z,16.04
2022-10-11T16:03:25.424Z,16.04
2022-10-11T16:05:53.387Z,16.04
2022-10-11T16:08:20.488Z,16.03
2022-10-11T16:10:47.557Z,16.07
2022-10-11T16:13:14.660Z,16.04
2022-10-11T16:15:42.634Z,15.99
2022-10-11T16:18:11.700Z,15.95
2022-10-11T16:20:43.178Z,15.90
2022-10-11T16:23:10.224Z,15.83
2022-10-11T16:25:37.502Z,15.81
2022-10-11T16:28:05.120Z,15.76
2022-10-11T16:30:31.527Z,15.67
2022-10-11T16:32:57.938Z,15.65
2022-10-11T16:35:25.470Z,15.64
2022-10-11T16:37:53.327Z,15.61
2022-10-11T16:40:21.259Z,15.58
2022-10-11T16:42:48.608Z,15.55
2022-10-11T16:45:15.936Z,15.47
2022-10-11T16:47:43.913Z,15.44
2022-10-11T16:50:11.603Z,15.41
2022-10-11T16:52:38.049Z,15.35
2022-10-11T16:55:05.063Z,15.35
2022-10-11T16:57:31.823Z,15.33
2022-10-11T16:59:58.270Z,15.29
2022-10-11T17:02:30.010Z,15.25
2022-10-11T17:04:58.860Z,15.21
2022-10-11T17:07:25.313Z,15.22
2022-10-11T17:09:51.802Z,15.18
2022-10-11T17:12:20.883Z,15.10
2022-10-11T17:14:47.777Z,14.99
2022-10-11T17:17:14.735Z,15.03
2022-10-11T17:19:45.061Z,15.03
2022-10-11T17:22:13.885Z,14.99
2022-10-11T17:24:40.502Z,14.96
2022-10-11T17:27:07.502Z,14.92
2022-10-11T17:29:33.995Z,14.90
2022-10-11T17:32:00.655Z,14.87
2022-10-11T17:34:27.227Z,14.83
2022-10-11T17:36:53.705Z,14.76
2022-10-11T17:39:22.590Z,14.78
2022-10-11T17:41:49.116Z,14.77
2022-10-11T17:44:17.971Z,14.77
2022-10-11T17:46:44.866Z,14.76
2022-10-11T17:49:12.228Z,14.72
2022-10-11T17:51:41.240Z,14.73
2022-10-11T17:54:12.333Z,14.65
2022-10-11T17:56:40.462Z,14.60
2022-10-11T17:59:08.145Z,14.55
2022-10-11T18:01:34.973Z,14.46
2022-10-11T18:04:04.302Z,14.49
2022-10-11T18:06:33.733Z,14.49
2022-10-11T18:09:01.944Z,14.48
2022-10-11T18:11:29.123Z,14.49
2022-10-11T18:13:55.631Z,14.44
2022-10-11T18:16:24.825Z,14.42
2022-10-11T18:18:51.252Z,14.37
2022-10-11T18:21:18.785Z,14.39
2022-10-11T18:23:45.558Z,14.37
2022-10-11T18:26:17.658Z,14.38
2022-10-11T18:28:44.715Z,14.33
2022-10-11T18:31:18.464Z,14.26
2022-10-11T18:33:46.354Z,14.23
2022-10-11T18:36:15.550Z,14.33
2022-10-11T18:38:46.131Z,14.29
2022-10-11T18:41:15.969Z,14.30
2022-10-11T18:43:42.744Z,14.27
2022-10-11T18:46:13.987Z,14.29
2022-10-11T18:48:42.016Z,14.30
2022-10-11T18:51:20.416Z,14.26
2022-10-11T18:53:47.744Z,14.07
2022-10-11T18:56:16.295Z,14.10
2022-10-11T18:58:44.507Z,14.22
2022-10-11T19:01:15.908Z,14.17
2022-10-11T19:03:43.059Z,14.06
2022-10-11T19:06:16.820Z,14.10
2022-10-11T19:08:51.291Z,14.12
2022-10-11T19:11:22.036Z,13.91
2022-10-11T19:13:58.806Z,13.89
2022-10-11T19:16:26.355Z,14.07
2022-10-11T19:18:53.591Z,14.04
2022-10-11T19:21:20.129Z,14.08
2022-10-11T19:23:47.976Z,13.97
2022-10-11T19:26:16.614Z,13.99
2022-10-11T19:28:44.014Z,14.03
2022-10-11T19:31:13.122Z,13.96
2022-10-11T19:33:39.593Z,14.00
2022-10-11T19:36:06.778Z,13.98
2022-10-11T19:38:35.631Z,13.98
2022-10-11T19:41:03.606Z,13.93
2022-10-11T19:43:30.925Z,13.83
2022-10-11T19:46:05.705Z,13.94
2022-10-11T19:48:32.661Z,13.93
2022-10-11T19:51:03.918Z,13.91
2022-10-11T19:53:30.387Z,13.93
2022-10-11T19:56:00.630Z,13.93
2022-10-11T19:58:27.090Z,13.79
2022-10-11T20:01:20.953Z,13.77
2022-10-11T20:03:50.455Z,13.83
2022-10-11T20:06:19.421Z,13.84
2022-10-11T20:08:48.211Z,13.88
2022-10-11T20:11:18.210Z,13.81
2022-10-11T20:13:45.124Z,13.80
2022-10-11T20:16:14.581Z,13.71
2022-10-11T20:18:41.963Z,13.69
2022-10-11T20:21:14.756Z,13.74
2022-10-11T20:26:22.302Z,13.78
2022-10-11T20:28:55.678Z,13.74
2022-10-11T20:31:30.166Z,13.77
2022-10-11T20:33:58.511Z,13.72
2022-10-11T20:36:27.908Z,13.69
2022-10-11T20:38:54.413Z,13.73
2022-10-11T20:41:26.518Z,13.62
2022-10-11T20:43:56.245Z,13.63
2022-10-11T20:46:24.908Z,13.64
2022-10-11T20:48:57.614Z,13.59
2022-10-11T20:51:27.644Z,13.65
2022-10-11T20:53:54.441Z,13.66
2022-10-11T20:56:22.158Z,13.65
2022-10-11T20:58:53.569Z,13.57
2022-10-11T21:01:22.977Z,13.55
2022-10-11T21:03:50.294Z,13.48
2022-10-11T21:06:16.755Z,13.40
2022-10-11T21:08:43.182Z,13.42
2022-10-11T21:11:10.669Z,13.42
2022-10-11T21:13:37.777Z,13.42
2022-10-11T21:16:15.716Z,13.41
2022-10-11T21:18:42.294Z,13.42
2022-10-11T21:21:13.989Z,13.47
2022-10-11T21:23:41.225Z,13.41
2022-10-11T21:26:10.351Z,13.22
2022-10-11T21:28:37.305Z,13.23
2022-10-11T21:31:15.866Z,13.23
2022-10-11T21:33:43.823Z,13.30
2022-10-11T21:36:18.559Z,13.46
2022-10-11T21:38:45.170Z,13.33
2022-10-11T21:41:13.820Z,13.35
2022-10-11T21:43:40.393Z,13.24
2022-10-11T21:46:17.485Z,13.27
2022-10-11T21:48:44.205Z,13.30
2022-10-11T21:51:17.063Z,13.33
2022-10-11T21:53:43.515Z,13.22
2022-10-11T21:56:09.987Z,13.23
2022-10-11T21:58:36.623Z,13.28
2022-10-11T22:01:03.473Z,13.32
2022-10-11T22:03:29.953Z,13.31
2022-10-11T22:05:56.333Z,13.31
2022-10-11T22:08:22.896Z,13.34
2022-10-11T22:10:55.218Z,13.29
2022-10-11T22:13:21.629Z,13.31
2022-10-11T22:15:48.275Z,13.24
2022-10-11T22:18:14.695Z,13.17
2022-10-11T22:20:41.270Z,13.06
2022-10-11T22:23:08.151Z,12.98
2022-10-11T22:25:35.621Z,13.16
2022-10-11T22:28:02.600Z,13.15
2022-10-11T22:30:29.842Z,13.14
2022-10-11T22:32:56.654Z,13.21
2022-10-11T22:35:23.513Z,13.26
2022-10-11T22:37:50.380Z,13.29
2022-10-11T22:40:17.809Z,13.33
2022-10-11T22:42:44.619Z,13.33
2022-10-11T22:45:11.564Z,13.31
2022-10-11T22:47:38.190Z,13.28
2022-10-11T22:50:05.464Z,13.17
2022-10-11T22:52:31.854Z,13.20
2022-10-11T22:54:58.220Z,13.28
2022-10-11T22:57:24.718Z,13.18
2022-10-11T22:59:51.121Z,13.30
2022-10-11T23:02:17.524Z,13.30
2022-10-11T23:04:43.916Z,13.29
2022-10-11T23:07:10.277Z,13.23
2022-10-11T23:09:36.654Z,13.29
2022-10-11T23:12:03.059Z,13.17
2022-10-11T23:14:29.427Z,13.31
2022-10-11T23:16:55.781Z,13.25
2022-10-11T23:19:22.155Z,13.30
2022-10-11T23:21:48.502Z,13.26
2022-10-11T23:24:14.966Z,13.34
2022-10-11T23:26:41.337Z,13.40
2022-10-11T23:29:07.850Z,13.33
2022-10-11T23:31:34.241Z,13.32
2022-10-11T23:34:00.639Z,13.24
2022-10-11T23:36:27.302Z,13.33
2022-10-11T23:38:56.138Z,13.34
2022-10-11T23:41:27.215Z,13.29
2022-10-11T23:43:53.728Z,13.18
2022-10-11T23:46:20.636Z,13.30
2022-10-11T23:48:47.074Z,13.37
2022-10-11T23:51:13.678Z,13.35
2022-10-11T23:53:40.095Z,13.31
2022-10-11T23:56:07.189Z,13.29
2022-10-11T23:58:33.671Z,13.35
